Franklin Hills, Indiana
Current Conditions -  °F | °C
As of 11:15 AM on Friday 31 Oct 2014 (Local Time) from KHNB Reporting Station
Overcast Overcast  
Wind Chill: 36°   Ceiling: 2100
Heat Index: 43°   Visibility: 9mi
Dew Point: 36°   Wind: 13mph
Humidity: 76%   Direction: 360°N
Pressure: 30.08"   Gusts: 20mph
Location:  38.0217°N, 86.7099°W
Report Text: KHNB 311615Z AUTO 36011G17KT 9SM SCT014 BKN021 OVC033 06/02 A3008 RMK AO1
Loading
Personal Weather Stations






























Interactive Weather Map New forecast layout! Learn more

10-Day Weather Forecast

Advertisements
Track Severe Weather on mobile